TimeEST,TemperatureF,Dew PointF,Humidity,Sea Level PressureIn,VisibilityMPH,Wind Direction,Wind SpeedMPH,Gust SpeedMPH,PrecipitationIn,Events,Conditions,WindDirDegrees,DateUTC
12:15 AM,37.4,32.9,84,30.31,10.0,East,6.9,-,N/A,,Overcast,90,2013-01-28 05:15:00
12:35 AM,37.6,32.0,80,30.31,10.0,East,10.4,-,N/A,,Overcast,90,2013-01-28 05:35:00
12:55 AM,37.4,32.2,81,30.31,10.0,East,8.1,-,N/A,,Overcast,90,2013-01-28 05:55:00
1:15 AM,37.4,32.4,82,30.31,10.0,East,8.1,-,N/A,,Overcast,90,2013-01-28 06:15:00
1:35 AM,37.6,32.2,81,30.31,10.0,East,6.9,-,N/A,,Overcast,90,2013-01-28 06:35:00
1:55 AM,37.6,32.4,81,30.31,10.0,East,5.8,-,N/A,,Overcast,90,2013-01-28 06:55:00
2:15 AM,37.6,32.4,81,30.32,10.0,East,4.6,-,N/A,,Overcast,80,2013-01-28 07:15:00
2:35 AM,37.8,32.0,80,30.31,10.0,East,3.5,-,N/A,,Overcast,80,2013-01-28 07:35:00
2:55 AM,38.1,32.0,79,30.32,10.0,Calm,Calm,-,N/A,,Overcast,0,2013-01-28 07:55:00
3:15 AM,38.1,32.4,80,30.31,10.0,East,4.6,-,N/A,,Overcast,90,2013-01-28 08:15:00
3:35 AM,37.9,33.4,84,30.31,10.0,East,4.6,-,N/A,,Light Drizzle,100,2013-01-28 08:35:00
3:55 AM,37.9,33.3,83,30.30,10.0,ESE,4.6,-,N/A,,Overcast,110,2013-01-28 08:55:00
4:15 AM,37.8,33.6,85,30.31,10.0,East,4.6,-,N/A,,Overcast,90,2013-01-28 09:15:00
4:35 AM,38.1,33.4,83,30.31,10.0,Calm,Calm,-,N/A,,Overcast,0,2013-01-28 09:35:00
5:15 AM,38.3,34.3,86,30.32,10.0,Calm,Calm,-,N/A,,Overcast,0,2013-01-28 10:15:00
5:35 AM,37.9,34.2,86,30.32,10.0,Calm,Calm,-,N/A,,Overcast,0,2013-01-28 10:35:00
5:55 AM,37.8,33.8,86,30.32,10.0,Calm,Calm,-,N/A,,Overcast,0,2013-01-28 10:55:00
6:15 AM,37.8,33.8,86,30.33,10.0,Calm,Calm,-,N/A,,Overcast,0,2013-01-28 11:15:00
6:35 AM,37.6,34.2,87,30.34,10.0,Calm,Calm,-,N/A,,Overcast,0,2013-01-28 11:35:00
7:15 AM,37.8,35.1,90,30.35,10.0,Calm,Calm,-,N/A,,Overcast,0,2013-01-28 12:15:00
7:35 AM,37.9,35.1,89,30.35,10.0,Calm,Calm,-,N/A,,Overcast,0,2013-01-28 12:35:00
7:55 AM,38.3,35.4,89,30.34,10.0,Calm,Calm,-,N/A,,Overcast,0,2013-01-28 12:55:00
8:15 AM,38.3,35.2,89,30.35,7.0,Calm,Calm,-,N/A,,Overcast,0,2013-01-28 13:15:00
8:35 AM,39.0,35.6,88,30.34,10.0,Calm,Calm,-,N/A,,Overcast,0,2013-01-28 13:35:00
8:55 AM,38.7,35.8,89,30.34,7.0,ESE,3.5,-,N/A,,Overcast,110,2013-01-28 13:55:00
9:15 AM,40.5,37.0,88,30.34,10.0,Calm,Calm,-,N/A,,Overcast,0,2013-01-28 14:15:00
9:35 AM,41.4,37.4,86,30.33,10.0,Calm,Calm,-,N/A,,Overcast,0,2013-01-28 14:35:00
9:55 AM,43.2,37.9,82,30.33,10.0,Calm,Calm,-,N/A,,Mostly Cloudy,0,2013-01-28 14:55:00
10:15 AM,45.0,39.0,80,30.32,10.0,ESE,3.5,-,N/A,,Scattered Clouds,110,2013-01-28 15:15:00
10:35 AM,46.8,38.8,74,30.32,10.0,Calm,Calm,-,N/A,,Scattered Clouds,0,2013-01-28 15:35:00
10:55 AM,48.4,39.4,71,30.32,10.0,Calm,Calm,-,N/A,,Clear,0,2013-01-28 15:55:00
11:15 AM,50.2,40.5,69,30.32,10.0,Calm,Calm,-,N/A,,Clear,0,2013-01-28 16:15:00
11:35 AM,52.2,41.4,67,30.30,10.0,SSW,3.5,-,N/A,,Clear,210,2013-01-28 16:35:00
11:55 AM,54.5,41.7,62,30.30,10.0,West,4.6,-,N/A,,Clear,280,2013-01-28 16:55:00
12:15 PM,55.2,42.1,61,30.28,10.0,Calm,Calm,-,N/A,,Clear,0,2013-01-28 17:15:00
12:35 PM,57.6,43.5,59,30.26,10.0,WSW,9.2,-,N/A,,Clear,250,2013-01-28 17:35:00
12:55 PM,58.6,44.1,58,30.25,10.0,West,9.2,-,N/A,,Scattered Clouds,280,2013-01-28 17:55:00
1:15 PM,60.1,44.8,57,30.24,10.0,WNW,6.9,-,N/A,,Mostly Cloudy,290,2013-01-28 18:15:00
1:35 PM,59.9,44.6,57,30.23,10.0,West,11.5,-,N/A,,Scattered Clouds,280,2013-01-28 18:35:00
1:55 PM,61.7,45.1,55,30.21,10.0,West,10.4,-,N/A,,Overcast,280,2013-01-28 18:55:00
2:15 PM,62.2,45.5,54,30.21,10.0,West,10.4,17.3,N/A,,Scattered Clouds,280,2013-01-28 19:15:00
2:35 PM,61.9,46.2,56,30.20,10.0,WNW,11.5,19.6,N/A,,Clear,290,2013-01-28 19:35:00
2:55 PM,61.3,46.6,58,30.20,10.0,WNW,13.8,19.6,N/A,,Clear,290,2013-01-28 19:55:00
3:15 PM,61.3,46.8,59,30.20,10.0,WNW,11.5,18.4,N/A,,Mostly Cloudy,290,2013-01-28 20:15:00
3:35 PM,60.1,46.4,61,30.20,10.0,West,13.8,-,N/A,,Mostly Cloudy,270,2013-01-28 20:35:00
3:55 PM,61.7,46.8,58,30.20,10.0,West,12.7,17.3,N/A,,Mostly Cloudy,260,2013-01-28 20:55:00
4:15 PM,60.4,46.6,60,30.20,10.0,West,11.5,17.3,N/A,,Overcast,260,2013-01-28 21:15:00
4:35 PM,58.1,46.4,65,30.20,10.0,West,9.2,-,N/A,,Overcast,270,2013-01-28 21:35:00
5:15 PM,57.4,46.8,68,30.21,10.0,WNW,6.9,-,N/A,,Overcast,290,2013-01-28 22:15:00
5:35 PM,56.8,47.1,70,30.21,10.0,West,6.9,-,N/A,,Overcast,280,2013-01-28 22:35:00
6:15 PM,55.6,46.9,73,30.22,10.0,WNW,4.6,-,N/A,,Overcast,290,2013-01-28 23:15:00
6:35 PM,55.0,46.9,74,30.23,10.0,West,4.6,-,N/A,,Overcast,270,2013-01-28 23:35:00
7:15 PM,54.5,47.3,77,30.23,10.0,West,4.6,-,N/A,,Overcast,260,2013-01-29 00:15:00
7:35 PM,54.5,47.5,77,30.23,10.0,West,6.9,-,N/A,,Overcast,260,2013-01-29 00:35:00
7:55 PM,54.0,47.8,80,30.24,10.0,West,4.6,-,N/A,,Overcast,270,2013-01-29 00:55:00
8:15 PM,53.6,48.7,84,30.24,10.0,West,6.9,-,N/A,,Overcast,270,2013-01-29 01:15:00
8:35 PM,52.7,49.8,90,30.24,7.0,WSW,8.1,-,N/A,Rain,Rain,250,2013-01-29 01:35:00
9:15 PM,51.1,50.0,96,30.24,7.0,WSW,6.9,-,N/A,,Overcast,250,2013-01-29 02:15:00
9:35 PM,51.1,50.0,96,30.24,7.0,West,4.6,-,N/A,,Overcast,260,2013-01-29 02:35:00
9:55 PM,50.9,50.0,97,30.24,7.0,Calm,Calm,-,N/A,,Light Drizzle,0,2013-01-29 02:55:00
10:15 PM,50.9,50.2,97,30.24,7.0,WNW,3.5,-,N/A,,Overcast,290,2013-01-29 03:15:00
10:35 PM,50.9,50.4,98,30.24,7.0,NW,3.5,-,N/A,,Overcast,310,2013-01-29 03:35:00
10:55 PM,50.9,50.4,98,30.24,7.0,WNW,3.5,-,N/A,Rain,Rain,300,2013-01-29 03:55:00
11:15 PM,50.5,50.2,99,30.23,5.0,WSW,4.6,-,N/A,Rain,Rain,250,2013-01-29 04:15:00
11:35 PM,50.0,50.0,100,30.23,4.0,Calm,Calm,-,N/A,Rain,Light Rain,0,2013-01-29 04:35:00
11:55 PM,50.0,50.0,100,30.23,4.0,Calm,Calm,-,N/A,,Overcast,0,2013-01-29 04:55:00